CYYT

St. John's International Airport

St. John's, Canada
METAR CYYT 190600Z 17016KT 15SM OVC022 M05/M08 A3022 RMK SC8 SLP244
Observed Flight Rules
Jan-19 @ 06:00 UTC (21 minutes ago) Marginal Visual Flight Rules
Wind Visibility Clouds
170° at 16 knots 15 miles
  • Overcast at 2,200' AGL
Temperatures Readings
Current -5°C / 23°F
Dewpoint -8°C / 18°F
Humidity 80%
Altimeter 30.22" Hg
Pressure 1024.4 hPa
Elevation 140
METAR CYYT 190600Z 17016KT 15SM OVC022 M05/M08 A3022 RMK SC8 SLP244
Observed Flight Rules
Jan-19 @ 06:00 UTC
(21 minutes ago)
MVFR
Wind Visibility
170° at 16 knots 15 miles
Clouds
  • Overcast at 2,200' AGL
Temperature Dewpoint
-5°C / 23°F -8°C / 18°F
Humidity Altimeter Pressure
80% 30.22" Hg 1024.4 hPa